sensor_id;sensor_type;location;lat;lon;timestamp;P1;durP1;ratioP1;P2;durP2;ratioP2
11743;SDS011;5929;51.906;7.674;2023-10-08T00:01:37;15.95;;;6.07;;
11743;SDS011;5929;51.906;7.674;2023-10-08T00:04:09;17.30;;;6.22;;
11743;SDS011;5929;51.906;7.674;2023-10-08T00:06:36;17.70;;;6.57;;
11743;SDS011;5929;51.906;7.674;2023-10-08T00:09:04;14.18;;;5.78;;
11743;SDS011;5929;51.906;7.674;2023-10-08T00:11:36;17.02;;;6.20;;
11743;SDS011;5929;51.906;7.674;2023-10-08T00:14:05;18.67;;;7.32;;
11743;SDS011;5929;51.906;7.674;2023-10-08T00:16:35;20.98;;;6.53;;
11743;SDS011;5929;51.906;7.674;2023-10-08T00:19:04;14.73;;;6.40;;
11743;SDS011;5929;51.906;7.674;2023-10-08T00:21:35;19.08;;;6.78;;
11743;SDS011;5929;51.906;7.674;2023-10-08T00:24:03;15.25;;;6.32;;
11743;SDS011;5929;51.906;7.674;2023-10-08T00:26:32;15.80;;;5.85;;
11743;SDS011;5929;51.906;7.674;2023-10-08T00:29:00;18.48;;;6.70;;
11743;SDS011;5929;51.906;7.674;2023-10-08T00:31:31;18.73;;;6.40;;
11743;SDS011;5929;51.906;7.674;2023-10-08T00:34:03;15.75;;;6.15;;
11743;SDS011;5929;51.906;7.674;2023-10-08T00:36:31;18.73;;;6.50;;
11743;SDS011;5929;51.906;7.674;2023-10-08T00:39:00;14.68;;;6.30;;
11743;SDS011;5929;51.906;7.674;2023-10-08T00:41:33;18.15;;;6.68;;
11743;SDS011;5929;51.906;7.674;2023-10-08T00:44:00;18.48;;;6.57;;
11743;SDS011;5929;51.906;7.674;2023-10-08T00:46:28;19.30;;;6.50;;
11743;SDS011;5929;51.906;7.674;2023-10-08T00:48:58;18.90;;;6.60;;
11743;SDS011;5929;51.906;7.674;2023-10-08T00:51:45;17.17;;;6.18;;
11743;SDS011;5929;51.906;7.674;2023-10-08T00:54:14;20.05;;;6.45;;
11743;SDS011;5929;51.906;7.674;2023-10-08T00:56:44;20.05;;;7.07;;
11743;SDS011;5929;51.906;7.674;2023-10-08T00:59:18;18.77;;;6.78;;
11743;SDS011;5929;51.906;7.674;2023-10-08T01:01:49;17.17;;;6.15;;
11743;SDS011;5929;51.906;7.674;2023-10-08T01:04:17;18.33;;;6.45;;
11743;SDS011;5929;51.906;7.674;2023-10-08T01:06:48;16.33;;;6.00;;
11743;SDS011;5929;51.906;7.674;2023-10-08T01:09:21;18.90;;;6.45;;
11743;SDS011;5929;51.906;7.674;2023-10-08T01:12:06;19.35;;;5.95;;
11743;SDS011;5929;51.906;7.674;2023-10-08T01:14:37;16.23;;;5.65;;
11743;SDS011;5929;51.906;7.674;2023-10-08T01:17:09;17.23;;;5.57;;
11743;SDS011;5929;51.906;7.674;2023-10-08T01:19:42;16.05;;;5.97;;
11743;SDS011;5929;51.906;7.674;2023-10-08T01:22:11;20.85;;;6.15;;
11743;SDS011;5929;51.906;7.674;2023-10-08T01:24:43;24.05;;;6.72;;
11743;SDS011;5929;51.906;7.674;2023-10-08T01:27:11;17.52;;;6.80;;
11743;SDS011;5929;51.906;7.674;2023-10-08T01:29:43;18.67;;;5.97;;
11743;SDS011;5929;51.906;7.674;2023-10-08T01:32:12;23.50;;;6.75;;
11743;SDS011;5929;51.906;7.674;2023-10-08T01:34:43;19.85;;;6.70;;
11743;SDS011;5929;51.906;7.674;2023-10-08T01:37:13;19.20;;;7.07;;
11743;SDS011;5929;51.906;7.674;2023-10-08T01:39:42;25.00;;;7.63;;
11743;SDS011;5929;51.906;7.674;2023-10-08T01:42:10;21.65;;;7.25;;
11743;SDS011;5929;51.906;7.674;2023-10-08T01:44:42;16.02;;;7.03;;
11743;SDS011;5929;51.906;7.674;2023-10-08T01:47:11;26.15;;;7.57;;
11743;SDS011;5929;51.906;7.674;2023-10-08T01:49:39;24.98;;;8.57;;
11743;SDS011;5929;51.906;7.674;2023-10-08T01:52:07;24.02;;;8.15;;
11743;SDS011;5929;51.906;7.674;2023-10-08T01:54:40;22.98;;;8.55;;
11743;SDS011;5929;51.906;7.674;2023-10-08T01:57:09;23.88;;;9.38;;
11743;SDS011;5929;51.906;7.674;2023-10-08T01:59:37;23.35;;;8.50;;
11743;SDS011;5929;51.906;7.674;2023-10-08T02:02:04;26.35;;;9.18;;
11743;SDS011;5929;51.906;7.674;2023-10-08T02:04:32;26.92;;;9.30;;
11743;SDS011;5929;51.906;7.674;2023-10-08T02:07:00;28.67;;;9.77;;
11743;SDS011;5929;51.906;7.674;2023-10-08T02:09:29;33.00;;;11.80;;
11743;SDS011;5929;51.906;7.674;2023-10-08T02:11:59;28.27;;;11.43;;
11743;SDS011;5929;51.906;7.674;2023-10-08T02:14:28;29.40;;;11.68;;
11743;SDS011;5929;51.906;7.674;2023-10-08T02:16:56;32.22;;;12.55;;
11743;SDS011;5929;51.906;7.674;2023-10-08T02:19:28;29.58;;;13.18;;
11743;SDS011;5929;51.906;7.674;2023-10-08T02:21:55;26.05;;;11.30;;
11743;SDS011;5929;51.906;7.674;2023-10-08T02:24:26;30.27;;;12.82;;
11743;SDS011;5929;51.906;7.674;2023-10-08T02:26:55;36.20;;;12.95;;
11743;SDS011;5929;51.906;7.674;2023-10-08T02:29:25;33.45;;;14.05;;
11743;SDS011;5929;51.906;7.674;2023-10-08T02:31:53;33.88;;;12.85;;
11743;SDS011;5929;51.906;7.674;2023-10-08T02:34:20;29.00;;;12.88;;
11743;SDS011;5929;51.906;7.674;2023-10-08T02:36:46;28.85;;;13.93;;
11743;SDS011;5929;51.906;7.674;2023-10-08T02:39:13;26.02;;;12.30;;
11743;SDS011;5929;51.906;7.674;2023-10-08T02:41:42;32.83;;;12.68;;
11743;SDS011;5929;51.906;7.674;2023-10-08T02:44:11;36.45;;;14.13;;
11743;SDS011;5929;51.906;7.674;2023-10-08T02:46:40;35.65;;;15.57;;
11743;SDS011;5929;51.906;7.674;2023-10-08T02:49:09;39.58;;;14.77;;
11743;SDS011;5929;51.906;7.674;2023-10-08T02:51:37;26.23;;;9.85;;
11743;SDS011;5929;51.906;7.674;2023-10-08T02:54:06;17.63;;;7.45;;
11743;SDS011;5929;51.906;7.674;2023-10-08T02:56:41;12.98;;;4.70;;
11743;SDS011;5929;51.906;7.674;2023-10-08T02:59:12;11.55;;;4.55;;
11743;SDS011;5929;51.906;7.674;2023-10-08T03:01:41;10.43;;;3.40;;
11743;SDS011;5929;51.906;7.674;2023-10-08T03:04:08;8.80;;;2.95;;
11743;SDS011;5929;51.906;7.674;2023-10-08T03:06:43;6.35;;;2.20;;
11743;SDS011;5929;51.906;7.674;2023-10-08T03:09:14;5.50;;;2.53;;
11743;SDS011;5929;51.906;7.674;2023-10-08T03:11:46;4.68;;;1.90;;
11743;SDS011;5929;51.906;7.674;2023-10-08T03:14:13;4.75;;;1.52;;
11743;SDS011;5929;51.906;7.674;2023-10-08T03:16:48;3.78;;;1.40;;
11743;SDS011;5929;51.906;7.674;2023-10-08T03:19:16;4.30;;;1.60;;
11743;SDS011;5929;51.906;7.674;2023-10-08T03:21:45;3.15;;;1.58;;
11743;SDS011;5929;51.906;7.674;2023-10-08T03:24:16;4.20;;;1.42;;
11743;SDS011;5929;51.906;7.674;2023-10-08T03:26:56;4.05;;;1.73;;
11743;SDS011;5929;51.906;7.674;2023-10-08T03:29:31;4.85;;;1.90;;
11743;SDS011;5929;51.906;7.674;2023-10-08T03:32:00;5.43;;;2.50;;
11743;SDS011;5929;51.906;7.674;2023-10-08T03:34:31;4.43;;;2.50;;
11743;SDS011;5929;51.906;7.674;2023-10-08T03:36:59;5.70;;;3.35;;
11743;SDS011;5929;51.906;7.674;2023-10-08T03:39:31;5.63;;;3.85;;
11743;SDS011;5929;51.906;7.674;2023-10-08T03:42:19;5.38;;;3.42;;
11743;SDS011;5929;51.906;7.674;2023-10-08T03:44:48;5.45;;;3.60;;
11743;SDS011;5929;51.906;7.674;2023-10-08T03:47:18;5.68;;;3.30;;
11743;SDS011;5929;51.906;7.674;2023-10-08T03:49:47;6.00;;;3.72;;
11743;SDS011;5929;51.906;7.674;2023-10-08T03:52:16;7.20;;;3.22;;
11743;SDS011;5929;51.906;7.674;2023-10-08T03:54:44;6.22;;;3.97;;
11743;SDS011;5929;51.906;7.674;2023-10-08T03:57:16;5.82;;;3.53;;
11743;SDS011;5929;51.906;7.674;2023-10-08T03:59:50;7.07;;;3.40;;
11743;SDS011;5929;51.906;7.674;2023-10-08T04:02:25;6.40;;;2.95;;
11743;SDS011;5929;51.906;7.674;2023-10-08T04:05:05;4.78;;;2.50;;
11743;SDS011;5929;51.906;7.674;2023-10-08T04:07:44;4.80;;;2.70;;
11743;SDS011;5929;51.906;7.674;2023-10-08T04:10:26;5.75;;;2.15;;
11743;SDS011;5929;51.906;7.674;2023-10-08T04:13:33;3.95;;;2.05;;
11743;SDS011;5929;51.906;7.674;2023-10-08T04:16:04;5.93;;;2.20;;
11743;SDS011;5929;51.906;7.674;2023-10-08T04:18:32;4.70;;;2.45;;
11743;SDS011;5929;51.906;7.674;2023-10-08T04:21:05;6.97;;;2.40;;
11743;SDS011;5929;51.906;7.674;2023-10-08T04:23:38;4.32;;;2.63;;
11743;SDS011;5929;51.906;7.674;2023-10-08T04:26:05;3.78;;;2.10;;
11743;SDS011;5929;51.906;7.674;2023-10-08T04:28:33;4.53;;;2.58;;
11743;SDS011;5929;51.906;7.674;2023-10-08T04:31:00;4.97;;;2.80;;
11743;SDS011;5929;51.906;7.674;2023-10-08T04:33:41;5.25;;;3.08;;
11743;SDS011;5929;51.906;7.674;2023-10-08T04:36:09;6.70;;;2.92;;
11743;SDS011;5929;51.906;7.674;2023-10-08T04:38:43;6.47;;;4.20;;
11743;SDS011;5929;51.906;7.674;2023-10-08T04:41:12;8.18;;;3.65;;
11743;SDS011;5929;51.906;7.674;2023-10-08T04:43:43;5.80;;;4.10;;
11743;SDS011;5929;51.906;7.674;2023-10-08T04:46:11;4.93;;;3.08;;
11743;SDS011;5929;51.906;7.674;2023-10-08T04:48:51;4.95;;;3.00;;
11743;SDS011;5929;51.906;7.674;2023-10-08T04:51:18;4.28;;;2.22;;
11743;SDS011;5929;51.906;7.674;2023-10-08T04:53:48;4.63;;;1.52;;
11743;SDS011;5929;51.906;7.674;2023-10-08T04:56:15;4.15;;;1.40;;
11743;SDS011;5929;51.906;7.674;2023-10-08T04:58:43;2.22;;;0.95;;
11743;SDS011;5929;51.906;7.674;2023-10-08T05:01:14;3.20;;;1.30;;
11743;SDS011;5929;51.906;7.674;2023-10-08T05:03:46;5.40;;;2.03;;
11743;SDS011;5929;51.906;7.674;2023-10-08T05:06:49;5.47;;;1.52;;
11743;SDS011;5929;51.906;7.674;2023-10-08T05:09:26;3.90;;;1.77;;
11743;SDS011;5929;51.906;7.674;2023-10-08T05:12:04;5.35;;;1.80;;
11743;SDS011;5929;51.906;7.674;2023-10-08T05:14:55;2.72;;;1.25;;
11743;SDS011;5929;51.906;7.674;2023-10-08T05:17:42;6.38;;;2.40;;
11743;SDS011;5929;51.906;7.674;2023-10-08T05:20:21;4.75;;;2.78;;
11743;SDS011;5929;51.906;7.674;2023-10-08T05:23:11;4.72;;;2.58;;
11743;SDS011;5929;51.906;7.674;2023-10-08T05:25:46;4.72;;;2.90;;
11743;SDS011;5929;51.906;7.674;2023-10-08T05:28:23;6.70;;;2.75;;
11743;SDS011;5929;51.906;7.674;2023-10-08T05:30:50;6.28;;;2.38;;
11743;SDS011;5929;51.906;7.674;2023-10-08T05:33:20;4.43;;;2.08;;
11743;SDS011;5929;51.906;7.674;2023-10-08T05:35:50;4.00;;;1.65;;
11743;SDS011;5929;51.906;7.674;2023-10-08T05:38:28;3.60;;;1.50;;
11743;SDS011;5929;51.906;7.674;2023-10-08T05:41:16;3.33;;;1.30;;
11743;SDS011;5929;51.906;7.674;2023-10-08T05:43:55;3.83;;;1.50;;
11743;SDS011;5929;51.906;7.674;2023-10-08T05:46:36;3.55;;;1.60;;
11743;SDS011;5929;51.906;7.674;2023-10-08T05:49:14;3.30;;;1.50;;
11743;SDS011;5929;51.906;7.674;2023-10-08T05:52:03;3.50;;;1.33;;
11743;SDS011;5929;51.906;7.674;2023-10-08T05:54:51;4.03;;;1.40;;
11743;SDS011;5929;51.906;7.674;2023-10-08T05:57:40;4.10;;;1.27;;
11743;SDS011;5929;51.906;7.674;2023-10-08T06:00:17;3.33;;;1.02;;
11743;SDS011;5929;51.906;7.674;2023-10-08T06:03:11;2.80;;;1.20;;
11743;SDS011;5929;51.906;7.674;2023-10-08T06:05:53;3.53;;;1.50;;
11743;SDS011;5929;51.906;7.674;2023-10-08T06:08:43;2.97;;;1.40;;
11743;SDS011;5929;51.906;7.674;2023-10-08T06:11:18;3.22;;;1.55;;
11743;SDS011;5929;51.906;7.674;2023-10-08T06:14:02;3.80;;;1.45;;
11743;SDS011;5929;51.906;7.674;2023-10-08T06:16:38;2.45;;;1.20;;
11743;SDS011;5929;51.906;7.674;2023-10-08T06:19:08;2.72;;;1.30;;
11743;SDS011;5929;51.906;7.674;2023-10-08T06:21:39;3.10;;;1.40;;
11743;SDS011;5929;51.906;7.674;2023-10-08T06:24:06;4.00;;;1.80;;
11743;SDS011;5929;51.906;7.674;2023-10-08T06:26:36;4.57;;;2.13;;
11743;SDS011;5929;51.906;7.674;2023-10-08T06:29:07;3.88;;;1.75;;
11743;SDS011;5929;51.906;7.674;2023-10-08T06:31:52;4.10;;;1.70;;
11743;SDS011;5929;51.906;7.674;2023-10-08T06:34:20;4.20;;;1.75;;
11743;SDS011;5929;51.906;7.674;2023-10-08T06:36:48;3.63;;;1.60;;
11743;SDS011;5929;51.906;7.674;2023-10-08T06:39:20;3.42;;;1.60;;
11743;SDS011;5929;51.906;7.674;2023-10-08T06:41:52;3.17;;;1.50;;
11743;SDS011;5929;51.906;7.674;2023-10-08T06:44:24;3.67;;;1.60;;
11743;SDS011;5929;51.906;7.674;2023-10-08T06:46:51;4.63;;;1.77;;
11743;SDS011;5929;51.906;7.674;2023-10-08T06:49:20;3.53;;;1.70;;
11743;SDS011;5929;51.906;7.674;2023-10-08T06:51:49;3.90;;;1.77;;
11743;SDS011;5929;51.906;7.674;2023-10-08T06:54:16;4.97;;;1.73;;
11743;SDS011;5929;51.906;7.674;2023-10-08T06:56:44;4.63;;;1.67;;
11743;SDS011;5929;51.906;7.674;2023-10-08T06:59:18;4.63;;;1.88;;
11743;SDS011;5929;51.906;7.674;2023-10-08T07:01:47;3.83;;;2.00;;
11743;SDS011;5929;51.906;7.674;2023-10-08T07:04:16;4.95;;;1.95;;
11743;SDS011;5929;51.906;7.674;2023-10-08T07:06:44;3.63;;;1.45;;
11743;SDS011;5929;51.906;7.674;2023-10-08T07:09:11;5.55;;;1.85;;
11743;SDS011;5929;51.906;7.674;2023-10-08T07:11:48;3.83;;;1.60;;
11743;SDS011;5929;51.906;7.674;2023-10-08T07:14:21;4.47;;;1.65;;
11743;SDS011;5929;51.906;7.674;2023-10-08T07:16:50;3.40;;;1.40;;
11743;SDS011;5929;51.906;7.674;2023-10-08T07:19:19;4.88;;;1.70;;
11743;SDS011;5929;51.906;7.674;2023-10-08T07:21:49;4.13;;;1.60;;
11743;SDS011;5929;51.906;7.674;2023-10-08T07:24:19;5.13;;;1.45;;
11743;SDS011;5929;51.906;7.674;2023-10-08T07:26:46;5.05;;;1.75;;
11743;SDS011;5929;51.906;7.674;2023-10-08T07:29:14;5.43;;;1.63;;
11743;SDS011;5929;51.906;7.674;2023-10-08T07:31:45;5.25;;;1.52;;
11743;SDS011;5929;51.906;7.674;2023-10-08T07:34:14;6.63;;;1.83;;
11743;SDS011;5929;51.906;7.674;2023-10-08T07:36:43;4.60;;;1.50;;
11743;SDS011;5929;51.906;7.674;2023-10-08T07:39:12;5.93;;;1.60;;
11743;SDS011;5929;51.906;7.674;2023-10-08T07:41:50;6.45;;;1.42;;
11743;SDS011;5929;51.906;7.674;2023-10-08T07:44:19;6.28;;;1.40;;
11743;SDS011;5929;51.906;7.674;2023-10-08T07:46:48;3.75;;;1.42;;
11743;SDS011;5929;51.906;7.674;2023-10-08T07:49:15;6.32;;;1.50;;
11743;SDS011;5929;51.906;7.674;2023-10-08T07:51:42;4.32;;;1.25;;
11743;SDS011;5929;51.906;7.674;2023-10-08T07:54:16;7.95;;;1.85;;
11743;SDS011;5929;51.906;7.674;2023-10-08T07:56:44;6.00;;;1.60;;
11743;SDS011;5929;51.906;7.674;2023-10-08T07:59:12;5.22;;;1.42;;
11743;SDS011;5929;51.906;7.674;2023-10-08T08:01:41;8.50;;;1.50;;
11743;SDS011;5929;51.906;7.674;2023-10-08T08:04:10;5.53;;;1.40;;
11743;SDS011;5929;51.906;7.674;2023-10-08T08:06:46;11.38;;;1.67;;
11743;SDS011;5929;51.906;7.674;2023-10-08T08:09:15;9.55;;;1.65;;
11743;SDS011;5929;51.906;7.674;2023-10-08T08:11:44;5.80;;;1.35;;
11743;SDS011;5929;51.906;7.674;2023-10-08T08:14:13;6.07;;;1.08;;
11743;SDS011;5929;51.906;7.674;2023-10-08T08:16:42;5.93;;;1.40;;
11743;SDS011;5929;51.906;7.674;2023-10-08T08:19:14;4.57;;;1.45;;
11743;SDS011;5929;51.906;7.674;2023-10-08T08:21:42;4.72;;;1.15;;
11743;SDS011;5929;51.906;7.674;2023-10-08T08:24:11;6.82;;;1.52;;
11743;SDS011;5929;51.906;7.674;2023-10-08T08:26:39;4.55;;;1.30;;
11743;SDS011;5929;51.906;7.674;2023-10-08T08:29:26;4.70;;;1.45;;
11743;SDS011;5929;51.906;7.674;2023-10-08T08:31:54;6.72;;;1.30;;
11743;SDS011;5929;51.906;7.674;2023-10-08T08:34:23;4.32;;;1.45;;
11743;SDS011;5929;51.906;7.674;2023-10-08T08:36:50;6.97;;;1.67;;
11743;SDS011;5929;51.906;7.674;2023-10-08T08:39:17;7.15;;;1.30;;
11743;SDS011;5929;51.906;7.674;2023-10-08T08:41:58;4.95;;;1.20;;
11743;SDS011;5929;51.906;7.674;2023-10-08T08:44:27;5.00;;;1.42;;
11743;SDS011;5929;51.906;7.674;2023-10-08T08:46:55;9.32;;;1.95;;
11743;SDS011;5929;51.906;7.674;2023-10-08T08:49:27;6.28;;;1.35;;
11743;SDS011;5929;51.906;7.674;2023-10-08T08:51:55;5.88;;;1.63;;
11743;SDS011;5929;51.906;7.674;2023-10-08T08:54:26;8.27;;;1.90;;
11743;SDS011;5929;51.906;7.674;2023-10-08T08:56:55;6.38;;;1.60;;
11743;SDS011;5929;51.906;7.674;2023-10-08T08:59:25;5.68;;;1.70;;
11743;SDS011;5929;51.906;7.674;2023-10-08T09:01:55;8.43;;;1.90;;
11743;SDS011;5929;51.906;7.674;2023-10-08T09:04:30;7.13;;;1.52;;
11743;SDS011;5929;51.906;7.674;2023-10-08T09:06:59;8.18;;;1.75;;
11743;SDS011;5929;51.906;7.674;2023-10-08T09:09:32;7.60;;;1.80;;
11743;SDS011;5929;51.906;7.674;2023-10-08T09:12:00;7.68;;;1.67;;
11743;SDS011;5929;51.906;7.674;2023-10-08T09:14:29;7.70;;;1.48;;
11743;SDS011;5929;51.906;7.674;2023-10-08T09:16:57;11.45;;;2.38;;
11743;SDS011;5929;51.906;7.674;2023-10-08T09:19:25;7.18;;;1.73;;
11743;SDS011;5929;51.906;7.674;2023-10-08T09:22:01;9.88;;;2.00;;
11743;SDS011;5929;51.906;7.674;2023-10-08T09:24:30;6.90;;;1.70;;
11743;SDS011;5929;51.906;7.674;2023-10-08T09:26:58;9.27;;;1.75;;
11743;SDS011;5929;51.906;7.674;2023-10-08T09:29:27;7.32;;;1.70;;
11743;SDS011;5929;51.906;7.674;2023-10-08T09:31:55;8.05;;;2.10;;
11743;SDS011;5929;51.906;7.674;2023-10-08T09:34:25;12.32;;;3.10;;
11743;SDS011;5929;51.906;7.674;2023-10-08T09:36:55;11.95;;;2.92;;
11743;SDS011;5929;51.906;7.674;2023-10-08T09:39:26;14.18;;;3.53;;
11743;SDS011;5929;51.906;7.674;2023-10-08T09:41:55;14.60;;;3.05;;
11743;SDS011;5929;51.906;7.674;2023-10-08T09:44:23;13.82;;;3.13;;
11743;SDS011;5929;51.906;7.674;2023-10-08T09:46:55;14.00;;;3.53;;
11743;SDS011;5929;51.906;7.674;2023-10-08T09:49:30;17.58;;;4.20;;
11743;SDS011;5929;51.906;7.674;2023-10-08T09:52:02;12.48;;;3.72;;
11743;SDS011;5929;51.906;7.674;2023-10-08T09:54:34;15.70;;;3.33;;
11743;SDS011;5929;51.906;7.674;2023-10-08T09:57:08;14.63;;;3.13;;
11743;SDS011;5929;51.906;7.674;2023-10-08T09:59:36;13.50;;;3.33;;
11743;SDS011;5929;51.906;7.674;2023-10-08T10:02:04;13.85;;;4.60;;
11743;SDS011;5929;51.906;7.674;2023-10-08T10:04:34;10.68;;;3.05;;
11743;SDS011;5929;51.906;7.674;2023-10-08T10:07:07;13.85;;;3.42;;
11743;SDS011;5929;51.906;7.674;2023-10-08T10:09:39;8.35;;;2.28;;
11743;SDS011;5929;51.906;7.674;2023-10-08T10:12:10;10.95;;;2.88;;
11743;SDS011;5929;51.906;7.674;2023-10-08T10:14:41;11.43;;;3.30;;
11743;SDS011;5929;51.906;7.674;2023-10-08T10:17:09;12.10;;;2.92;;
11743;SDS011;5929;51.906;7.674;2023-10-08T10:19:39;7.90;;;2.33;;
11743;SDS011;5929;51.906;7.674;2023-10-08T10:22:10;10.05;;;3.30;;
11743;SDS011;5929;51.906;7.674;2023-10-08T10:24:41;11.18;;;4.00;;
11743;SDS011;5929;51.906;7.674;2023-10-08T10:27:11;10.45;;;4.25;;
11743;SDS011;5929;51.906;7.674;2023-10-08T10:29:39;12.13;;;4.55;;
11743;SDS011;5929;51.906;7.674;2023-10-08T10:32:09;16.13;;;5.80;;
11743;SDS011;5929;51.906;7.674;2023-10-08T10:34:38;16.48;;;5.55;;
11743;SDS011;5929;51.906;7.674;2023-10-08T10:37:05;14.15;;;4.78;;
11743;SDS011;5929;51.906;7.674;2023-10-08T10:39:35;15.45;;;5.10;;
11743;SDS011;5929;51.906;7.674;2023-10-08T10:42:08;11.30;;;4.47;;
11743;SDS011;5929;51.906;7.674;2023-10-08T10:44:45;11.52;;;4.57;;
11743;SDS011;5929;51.906;7.674;2023-10-08T10:47:15;9.45;;;3.55;;
11743;SDS011;5929;51.906;7.674;2023-10-08T10:50:07;11.05;;;3.65;;
11743;SDS011;5929;51.906;7.674;2023-10-08T10:52:56;10.40;;;3.67;;
11743;SDS011;5929;51.906;7.674;2023-10-08T10:55:23;9.13;;;3.15;;
11743;SDS011;5929;51.906;7.674;2023-10-08T10:57:58;9.30;;;3.15;;
11743;SDS011;5929;51.906;7.674;2023-10-08T11:00:36;10.07;;;4.03;;
11743;SDS011;5929;51.906;7.674;2023-10-08T11:03:22;7.05;;;4.00;;
11743;SDS011;5929;51.906;7.674;2023-10-08T11:05:51;10.15;;;4.38;;
11743;SDS011;5929;51.906;7.674;2023-10-08T11:08:21;10.00;;;4.10;;
11743;SDS011;5929;51.906;7.674;2023-10-08T11:10:49;9.63;;;4.97;;
11743;SDS011;5929;51.906;7.674;2023-10-08T11:13:20;11.38;;;3.95;;
11743;SDS011;5929;51.906;7.674;2023-10-08T11:15:47;7.47;;;2.90;;
11743;SDS011;5929;51.906;7.674;2023-10-08T11:18:17;6.80;;;2.85;;
11743;SDS011;5929;51.906;7.674;2023-10-08T11:20:46;6.65;;;2.83;;
11743;SDS011;5929;51.906;7.674;2023-10-08T11:23:31;5.78;;;2.25;;
11743;SDS011;5929;51.906;7.674;2023-10-08T11:26:00;7.32;;;3.15;;
11743;SDS011;5929;51.906;7.674;2023-10-08T11:28:30;10.55;;;3.28;;
11743;SDS011;5929;51.906;7.674;2023-10-08T11:31:00;7.75;;;2.70;;
11743;SDS011;5929;51.906;7.674;2023-10-08T11:33:33;10.57;;;2.75;;
11743;SDS011;5929;51.906;7.674;2023-10-08T11:36:02;8.05;;;2.85;;
11743;SDS011;5929;51.906;7.674;2023-10-08T11:38:37;8.05;;;2.55;;
11743;SDS011;5929;51.906;7.674;2023-10-08T11:41:11;10.35;;;3.10;;
11743;SDS011;5929;51.906;7.674;2023-10-08T11:43:54;9.80;;;2.42;;
11743;SDS011;5929;51.906;7.674;2023-10-08T11:46:23;8.98;;;2.08;;
11743;SDS011;5929;51.906;7.674;2023-10-08T11:49:00;5.65;;;1.60;;
11743;SDS011;5929;51.906;7.674;2023-10-08T11:51:30;7.20;;;1.85;;
11743;SDS011;5929;51.906;7.674;2023-10-08T11:53:58;7.43;;;1.98;;
11743;SDS011;5929;51.906;7.674;2023-10-08T11:56:26;6.28;;;1.40;;
11743;SDS011;5929;51.906;7.674;2023-10-08T11:58:54;4.40;;;1.30;;
11743;SDS011;5929;51.906;7.674;2023-10-08T12:01:22;4.53;;;1.05;;
11743;SDS011;5929;51.906;7.674;2023-10-08T12:03:51;5.13;;;1.08;;
11743;SDS011;5929;51.906;7.674;2023-10-08T12:06:24;6.60;;;1.27;;
11743;SDS011;5929;51.906;7.674;2023-10-08T12:08:54;4.70;;;1.10;;
11743;SDS011;5929;51.906;7.674;2023-10-08T12:11:23;5.38;;;1.23;;
11743;SDS011;5929;51.906;7.674;2023-10-08T12:13:57;5.15;;;1.15;;
11743;SDS011;5929;51.906;7.674;2023-10-08T12:16:25;5.25;;;1.13;;
11743;SDS011;5929;51.906;7.674;2023-10-08T12:18:55;7.18;;;1.35;;
11743;SDS011;5929;51.906;7.674;2023-10-08T12:21:27;5.65;;;1.33;;
11743;SDS011;5929;51.906;7.674;2023-10-08T12:23:55;5.72;;;1.20;;
11743;SDS011;5929;51.906;7.674;2023-10-08T12:26:22;4.90;;;0.95;;
11743;SDS011;5929;51.906;7.674;2023-10-08T12:28:50;6.68;;;1.35;;
11743;SDS011;5929;51.906;7.674;2023-10-08T12:31:20;4.20;;;1.08;;
11743;SDS011;5929;51.906;7.674;2023-10-08T12:33:47;3.70;;;1.08;;
11743;SDS011;5929;51.906;7.674;2023-10-08T12:36:18;5.60;;;1.02;;
11743;SDS011;5929;51.906;7.674;2023-10-08T12:38:48;4.95;;;1.35;;
11743;SDS011;5929;51.906;7.674;2023-10-08T12:41:22;5.00;;;1.27;;
11743;SDS011;5929;51.906;7.674;2023-10-08T12:43:50;5.45;;;1.35;;
11743;SDS011;5929;51.906;7.674;2023-10-08T12:46:20;9.07;;;1.38;;
11743;SDS011;5929;51.906;7.674;2023-10-08T12:48:50;5.38;;;1.17;;
11743;SDS011;5929;51.906;7.674;2023-10-08T12:51:19;4.30;;;1.00;;
11743;SDS011;5929;51.906;7.674;2023-10-08T12:53:49;4.45;;;1.08;;
11743;SDS011;5929;51.906;7.674;2023-10-08T12:56:23;5.97;;;1.17;;
11743;SDS011;5929;51.906;7.674;2023-10-08T12:58:57;5.00;;;0.93;;
11743;SDS011;5929;51.906;7.674;2023-10-08T13:01:25;5.45;;;1.08;;
11743;SDS011;5929;51.906;7.674;2023-10-08T13:03:56;4.07;;;0.85;;
11743;SDS011;5929;51.906;7.674;2023-10-08T13:06:26;6.00;;;1.20;;
11743;SDS011;5929;51.906;7.674;2023-10-08T13:08:54;5.53;;;1.10;;
11743;SDS011;5929;51.906;7.674;2023-10-08T13:11:29;5.75;;;1.20;;
11743;SDS011;5929;51.906;7.674;2023-10-08T13:13:59;7.03;;;1.10;;
11743;SDS011;5929;51.906;7.674;2023-10-08T13:16:27;6.18;;;1.10;;
11743;SDS011;5929;51.906;7.674;2023-10-08T13:18:56;2.65;;;0.90;;
11743;SDS011;5929;51.906;7.674;2023-10-08T13:21:24;5.55;;;1.20;;
11743;SDS011;5929;51.906;7.674;2023-10-08T13:23:52;4.55;;;1.20;;
11743;SDS011;5929;51.906;7.674;2023-10-08T13:26:22;4.40;;;1.00;;
11743;SDS011;5929;51.906;7.674;2023-10-08T13:28:49;4.20;;;0.93;;
11743;SDS011;5929;51.906;7.674;2023-10-08T13:31:17;5.75;;;1.40;;
11743;SDS011;5929;51.906;7.674;2023-10-08T13:33:46;5.55;;;1.20;;
11743;SDS011;5929;51.906;7.674;2023-10-08T13:36:17;7.38;;;1.23;;
11743;SDS011;5929;51.906;7.674;2023-10-08T13:38:44;3.85;;;1.00;;
11743;SDS011;5929;51.906;7.674;2023-10-08T13:41:12;4.70;;;1.10;;
11743;SDS011;5929;51.906;7.674;2023-10-08T13:43:41;4.45;;;0.98;;
11743;SDS011;5929;51.906;7.674;2023-10-08T13:46:10;5.40;;;0.85;;
11743;SDS011;5929;51.906;7.674;2023-10-08T13:48:39;4.35;;;1.00;;
11743;SDS011;5929;51.906;7.674;2023-10-08T13:51:08;5.60;;;1.98;;
11743;SDS011;5929;51.906;7.674;2023-10-08T13:53:39;6.35;;;0.95;;
11743;SDS011;5929;51.906;7.674;2023-10-08T13:56:10;5.85;;;1.10;;
11743;SDS011;5929;51.906;7.674;2023-10-08T13:58:37;6.00;;;1.15;;
11743;SDS011;5929;51.906;7.674;2023-10-08T14:01:11;5.18;;;1.30;;
11743;SDS011;5929;51.906;7.674;2023-10-08T14:03:44;3.90;;;0.85;;
11743;SDS011;5929;51.906;7.674;2023-10-08T14:06:13;4.65;;;1.08;;
11743;SDS011;5929;51.906;7.674;2023-10-08T14:08:41;4.43;;;1.00;;
11743;SDS011;5929;51.906;7.674;2023-10-08T14:11:16;5.72;;;1.13;;
11743;SDS011;5929;51.906;7.674;2023-10-08T14:13:44;3.70;;;1.00;;
11743;SDS011;5929;51.906;7.674;2023-10-08T14:16:12;5.22;;;1.05;;
11743;SDS011;5929;51.906;7.674;2023-10-08T14:18:40;5.53;;;1.23;;
11743;SDS011;5929;51.906;7.674;2023-10-08T14:21:07;3.60;;;1.02;;
11743;SDS011;5929;51.906;7.674;2023-10-08T14:23:36;6.00;;;1.20;;
11743;SDS011;5929;51.906;7.674;2023-10-08T14:26:05;4.30;;;0.93;;
11743;SDS011;5929;51.906;7.674;2023-10-08T14:28:33;4.05;;;1.10;;
11743;SDS011;5929;51.906;7.674;2023-10-08T14:31:17;3.83;;;1.05;;
11743;SDS011;5929;51.906;7.674;2023-10-08T14:33:47;5.00;;;1.08;;
11743;SDS011;5929;51.906;7.674;2023-10-08T14:36:30;3.80;;;1.15;;
11743;SDS011;5929;51.906;7.674;2023-10-08T14:39:19;5.40;;;1.35;;
11743;SDS011;5929;51.906;7.674;2023-10-08T14:42:03;4.13;;;1.20;;
11743;SDS011;5929;51.906;7.674;2023-10-08T14:44:47;4.93;;;0.90;;
11743;SDS011;5929;51.906;7.674;2023-10-08T14:47:15;5.05;;;1.10;;
11743;SDS011;5929;51.906;7.674;2023-10-08T14:49:42;4.68;;;1.20;;
11743;SDS011;5929;51.906;7.674;2023-10-08T14:52:10;4.95;;;1.40;;
11743;SDS011;5929;51.906;7.674;2023-10-08T14:54:41;5.28;;;1.15;;
11743;SDS011;5929;51.906;7.674;2023-10-08T14:57:08;8.15;;;1.27;;
11743;SDS011;5929;51.906;7.674;2023-10-08T14:59:37;5.78;;;0.90;;
11743;SDS011;5929;51.906;7.674;2023-10-08T15:02:04;5.00;;;1.00;;
11743;SDS011;5929;51.906;7.674;2023-10-08T15:04:32;4.20;;;1.15;;
11743;SDS011;5929;51.906;7.674;2023-10-08T15:07:03;8.38;;;1.08;;
11743;SDS011;5929;51.906;7.674;2023-10-08T15:09:30;3.10;;;0.80;;
11743;SDS011;5929;51.906;7.674;2023-10-08T15:11:58;6.68;;;1.15;;
11743;SDS011;5929;51.906;7.674;2023-10-08T15:14:25;6.68;;;1.30;;
11743;SDS011;5929;51.906;7.674;2023-10-08T15:16:52;4.43;;;1.00;;
11743;SDS011;5929;51.906;7.674;2023-10-08T15:19:21;5.82;;;1.20;;
11743;SDS011;5929;51.906;7.674;2023-10-08T15:21:49;4.20;;;1.05;;